Un Pendik — TCOD2 — position and weather

sailwx.info

Track history (hours):
 
Tides and Currents Weather Stations Pressure Air Temp Water Temp Dewpoint Dewpoint Depression Visibility Wind Speed Wind Dir Waves Ship Positions

Un Pendik

Last reported at 2014-Nov-24 08:25 UTC. Time now 2014-Nov-24 22:48 UTC.
Position N 36°57' E 023°38'.

Length 193 m; draft 6.6 m.

Type: Ship (hazmat cat A). MMSI: 271000792.

Date/timePositionNaut miles runAvg speedWind from/ knotsBaromVisibWave heightAir tempDewpointWater temp
2014-Nov-24 08:25N 36°57' E 023°38'2419.5
2014-Nov-24 07:12N 37°17' E 023°54'1320.1
2014-Nov-24 06:33N 37°28' E 024°03'2020.0
2014-Nov-24 05:33N 37°44' E 024°18'27417.1
2014-Nov-23 13:33N 40°52' E 028°35'1919.1
2014-Nov-23 12:33N 40°51' E 029°01'1211.9
2014-Nov-23 11:33N 40°51' E 029°16'0 0.0
2014-Nov-23 10:33N 40°51' E 029°16'0 0.0
2014-Nov-23 09:33N 40°51' E 029°16'0 0.0
2014-Nov-23 08:33N 40°51' E 029°16'0 0.0
2014-Nov-23 07:34N 40°51' E 029°16'0 0.0
2014-Nov-23 06:34N 40°51' E 029°16'0 0.0
2014-Nov-23 05:33N 40°51' E 029°16'0 0.0
2014-Nov-23 04:34N 40°51' E 029°16'0 0.0
2014-Nov-23 03:34N 40°51' E 029°16'0 0.0
2014-Nov-23 02:34N 40°51' E 029°16'0 0.0
2014-Nov-23 01:34N 40°51' E 029°16'0 0.0
2014-Nov-23 00:33N 40°51' E 029°16'0 0.0
2014-Nov-22 23:33N 40°51' E 029°16'0 0.0
2014-Nov-22 22:33N 40°51' E 029°16'8 8.5
2014-Nov-22 21:34N 40°48' E 029°06'10119.1
2014-Nov-22 16:14N 40°29' E 026°55'19617.8
2014-Nov-22 05:12N 37°46' E 024°33'1319.0
2014-Nov-22 04:32N 37°35' E 024°27'2419.5
2014-Nov-22 03:19N 37°16' E 024°08'86717.8
2014-Nov-20 02:29N 42°34' E 006°36'1818.9
2014-Nov-20 01:33N 42°45' E 006°17'1818.0
2014-Nov-20 00:34N 42°57' E 005°60'10 9.5
2014-Nov-19 23:29N 43°06' E 005°54'0 0.0
2014-Nov-19 22:32N 43°06' E 005°54'0 0.0
2014-Nov-19 21:31N 43°06' E 005°54'0 0.0
2014-Nov-19 20:31N 43°06' E 005°54'0 0.0
2014-Nov-19 19:31N 43°06' E 005°54'0 0.0
2014-Nov-19 18:33N 43°06' E 005°54'0 0.0
2014-Nov-19 17:33N 43°06' E 005°54'0 0.0
2014-Nov-19 16:32N 43°06' E 005°54'0 0.0
2014-Nov-19 15:32N 43°06' E 005°54'0 0.0
2014-Nov-19 14:31N 43°06' E 005°54'0 0.0
2014-Nov-19 13:31N 43°06' E 005°54'0 0.0
2014-Nov-19 12:31N 43°06' E 005°54'0 0.1
2014-Nov-19 11:33N 43°06' E 005°54'9 9.0
2014-Nov-19 10:33N 42°59' E 006°01'1817.9
2014-Nov-19 09:33N 42°46' E 006°17'47818.3
2014-Nov-18 07:29N 38°39' E 015°17'1818.8
2014-Nov-18 06:33N 38°27' E 015°32'36117.8
2014-Nov-17 10:13N 36°23' E 022°39'1518.6
2014-Nov-17 09:26N 36°25' E 022°57'3316.6
2014-Nov-17 07:26N 36°46' E 023°30'1618.2
2014-Nov-17 06:33N 36°60' E 023°40'1918.9
2014-Nov-17 05:32N 37°16' E 023°54'1919.3
2014-Nov-17 04:33N 37°32' E 024°06'1919.4
2014-Nov-17 03:33N 37°47' E 024°21'3919.4
2014-Nov-17 01:32N 38°20' E 024°49'30 0.6
2014-Nov-15 02:26N 37°52' E 024°36'1719.6
2014-Nov-15 01:33N 37°36' E 024°26'1919.0
2014-Nov-15 00:33N 37°20' E 024°13'2319.0
2014-Nov-14 23:20N 37°02' E 023°55'1518.9
2014-Nov-14 22:33N 36°50' E 023°44'  
Track history (hours):
 
Tides and Currents Weather Stations Pressure Air Temp Water Temp Dewpoint Dewpoint Depression Visibility Wind Speed Wind Dir Waves Ship Positions

Un Pendik

Last reported at 2014-Nov-24 08:25 UTC. Time now 2014-Nov-24 22:48 UTC.
Position N 36°57' E 023°38'.

Length 193 m; draft 6.6 m.

Type: Ship (hazmat cat A). MMSI: 271000792.

Date/timePositionNaut miles runAvg speedWind from/ knotsBaromVisibWave heightAir tempDewpointWater temp
2014-Nov-24 08:25N 36°57' E 023°38'2419.5
2014-Nov-24 07:12N 37°17' E 023°54'1320.1
2014-Nov-24 06:33N 37°28' E 024°03'2020.0
2014-Nov-24 05:33N 37°44' E 024°18'27417.1
2014-Nov-23 13:33N 40°52' E 028°35'1919.1
2014-Nov-23 12:33N 40°51' E 029°01'1211.9
2014-Nov-23 11:33N 40°51' E 029°16'0 0.0
2014-Nov-23 10:33N 40°51' E 029°16'0 0.0
2014-Nov-23 09:33N 40°51' E 029°16'0 0.0
2014-Nov-23 08:33N 40°51' E 029°16'0 0.0
2014-Nov-23 07:34N 40°51' E 029°16'0 0.0
2014-Nov-23 06:34N 40°51' E 029°16'0 0.0
2014-Nov-23 05:33N 40°51' E 029°16'0 0.0
2014-Nov-23 04:34N 40°51' E 029°16'0 0.0
2014-Nov-23 03:34N 40°51' E 029°16'0 0.0
2014-Nov-23 02:34N 40°51' E 029°16'0 0.0
2014-Nov-23 01:34N 40°51' E 029°16'0 0.0
2014-Nov-23 00:33N 40°51' E 029°16'0 0.0
2014-Nov-22 23:33N 40°51' E 029°16'0 0.0
2014-Nov-22 22:33N 40°51' E 029°16'8 8.5
2014-Nov-22 21:34N 40°48' E 029°06'10119.1
2014-Nov-22 16:14N 40°29' E 026°55'19617.8
2014-Nov-22 05:12N 37°46' E 024°33'1319.0
2014-Nov-22 04:32N 37°35' E 024°27'2419.5
2014-Nov-22 03:19N 37°16' E 024°08'86717.8
2014-Nov-20 02:29N 42°34' E 006°36'1818.9
2014-Nov-20 01:33N 42°45' E 006°17'1818.0
2014-Nov-20 00:34N 42°57' E 005°60'10 9.5
2014-Nov-19 23:29N 43°06' E 005°54'0 0.0
2014-Nov-19 22:32N 43°06' E 005°54'0 0.0
2014-Nov-19 21:31N 43°06' E 005°54'0 0.0
2014-Nov-19 20:31N 43°06' E 005°54'0 0.0
2014-Nov-19 19:31N 43°06' E 005°54'0 0.0
2014-Nov-19 18:33N 43°06' E 005°54'0 0.0
2014-Nov-19 17:33N 43°06' E 005°54'0 0.0
2014-Nov-19 16:32N 43°06' E 005°54'0 0.0
2014-Nov-19 15:32N 43°06' E 005°54'0 0.0
2014-Nov-19 14:31N 43°06' E 005°54'0 0.0
2014-Nov-19 13:31N 43°06' E 005°54'0 0.0
2014-Nov-19 12:31N 43°06' E 005°54'0 0.1
2014-Nov-19 11:33N 43°06' E 005°54'9 9.0
2014-Nov-19 10:33N 42°59' E 006°01'1817.9
2014-Nov-19 09:33N 42°46' E 006°17'47818.3
2014-Nov-18 07:29N 38°39' E 015°17'1818.8
2014-Nov-18 06:33N 38°27' E 015°32'36117.8
2014-Nov-17 10:13N 36°23' E 022°39'1518.6
2014-Nov-17 09:26N 36°25' E 022°57'3316.6
2014-Nov-17 07:26N 36°46' E 023°30'1618.2
2014-Nov-17 06:33N 36°60' E 023°40'1918.9
2014-Nov-17 05:32N 37°16' E 023°54'1919.3
2014-Nov-17 04:33N 37°32' E 024°06'1919.4
2014-Nov-17 03:33N 37°47' E 024°21'3919.4
2014-Nov-17 01:32N 38°20' E 024°49'30 0.6
2014-Nov-15 02:26N 37°52' E 024°36'1719.6
2014-Nov-15 01:33N 37°36' E 024°26'1919.0
2014-Nov-15 00:33N 37°20' E 024°13'2319.0
2014-Nov-14 23:20N 37°02' E 023°55'1518.9
2014-Nov-14 22:33N 36°50' E 023°44'  

Dump ship's entire track history